Dallas, Texas
Traffic Map
Current Weather Conditions
Dallas, Texas
Few Clouds
Few Clouds
22°
Feels Like: 22°
Wind Chill: 22° Ceiling: Unl
Heat Index: 22° Visibility: 10mi
Dew Point: Wind: 10mph
Humidity: 35% Direction: 290° (WNW)
Pressure: 29.9in Gusts: 0mph
Raw Report DataKDAL 252353Z 29009KT 10SM FEW050 FEW300 22/06 A2990 RMK AO2 SLP121 T02220061 10228 20189 56014
Traffic Incident Summary
Active as of:
Severity:
Category:
InformationThere was an issue retrieving the traffic information for this location. Please try a different location or try again shortly.
Advertisements
Track Severe Weather on mobile